Time;durP1;ratioP1;P1;durP2;ratioP2;P2;SDS_P1;SDS_P2;PMS_P1;PMS_P2;Temp;Humidity;BMP_temperature;BMP_pressure;BME280_temperature;BME280_humidity;BME280_pressure;Samples;Min_cycle;Max_cycle;Signal;HPM_P1;HPM_P2
2023/03/08 00:02:56;;;;;;;;;;;;;;;8.21;62.15;99068.28;5415505;32;36078;-66
2023/03/08 00:05:58;;;;;;;;;;;;;;;8.26;61.97;99050.56;5405693;32;35627;-65
2023/03/08 00:09:00;;;;;;;;;;;;;;;8.48;61.56;99052.12;5404234;32;36010;-72
2023/03/08 00:12:02;;;;;;;;;;;;;;;8.32;62.27;99063.34;5402167;32;36064;-65
2023/03/08 00:15:04;;;;;;;;;;;;;;;8.16;62.86;99059.81;5410810;32;34704;-72
2023/03/08 00:18:06;;;;;;;;;;;;;;;8.31;63.44;99053.81;5413000;32;36226;-66
2023/03/08 00:21:12;;;;;;;;;;;;;;;8.18;63.84;99059.72;5410167;32;34604;-74
2023/03/08 00:24:15;;;;;;;;;;;;;;;8.17;64.44;99055.41;5420823;32;44944;-65
2023/03/08 00:27:17;;;;;;;;;;;;;;;8.27;64.31;99061.88;5400861;32;35044;-66
2023/03/08 00:30:19;;;;;;;;;;;;;;;8.13;64.79;99067.81;5414394;32;34749;-74
2023/03/08 00:33:21;;;;;;;;;;;;;;;7.68;66.96;99063.94;5404275;32;35452;-67
2023/03/08 00:36:23;;;;;;;;;;;;;;;7.85;67.09;99060.47;5407282;32;35724;-66
2023/03/08 00:39:25;;;;;;;;;;;;;;;7.82;66.70;99071.09;5411306;32;35303;-64
2023/03/08 00:42:27;;;;;;;;;;;;;;;8.36;64.50;99064.91;5384121;32;35771;-66
2023/03/08 00:45:29;;;;;;;;;;;;;;;8.02;65.93;99063.13;5384893;32;35407;-73
2023/03/08 00:48:30;;;;;;;;;;;;;;;8.35;63.51;99050.13;5400498;32;35399;-65
2023/03/08 00:51:32;;;;;;;;;;;;;;;8.42;62.83;99050.66;5413178;32;35931;-71
2023/03/08 00:54:34;;;;;;;;;;;;;;;8.51;63.51;99042.34;5401541;32;36564;-68
2023/03/08 00:57:36;;;;;;;;;;;;;;;8.72;63.07;99037.75;5404300;32;34802;-71
2023/03/08 01:00:38;;;;;;;;;;;;;;;8.81;63.07;99052.12;5411889;32;35268;-73
2023/03/08 01:03:40;;;;;;;;;;;;;;;8.04;65.89;99053.41;5402468;32;36333;-74
2023/03/08 01:06:42;;;;;;;;;;;;;;;8.62;64.03;99047.00;5420532;32;35465;-72
2023/03/08 01:09:43;;;;;;;;;;;;;;;8.65;62.98;99049.47;5403776;32;44562;-73
2023/03/08 01:12:45;;;;;;;;;;;;;;;7.82;65.48;99056.25;5413399;32;34597;-74
2023/03/08 01:15:47;;;;;;;;;;;;;;;7.12;69.64;99061.38;5397037;32;35258;-66
2023/03/08 01:18:49;;;;;;;;;;;;;;;7.41;68.24;99065.25;5406040;32;34910;-65
2023/03/08 01:21:51;;;;;;;;;;;;;;;7.74;67.37;99070.63;5417767;32;34426;-65
2023/03/08 01:24:53;;;;;;;;;;;;;;;8.01;65.23;99074.50;5403525;32;34840;-66
2023/03/08 01:27:55;;;;;;;;;;;;;;;8.07;63.91;99076.81;5415493;32;35611;-66
2023/03/08 01:31:03;;;;;;;;;;;;;;;8.42;63.25;99076.84;5401700;32;35020;-73
2023/03/08 01:34:05;;;;;;;;;;;;;;;8.63;62.56;99065.28;5415853;32;36126;-71
2023/03/08 01:37:07;;;;;;;;;;;;;;;8.02;64.61;99084.03;5409581;32;34900;-72
2023/03/08 01:40:09;;;;;;;;;;;;;;;7.82;67.41;99084.19;5405338;32;35720;-64
2023/03/08 01:43:21;;;;;;;;;;;;;;;8.01;67.90;99082.34;5393674;32;35900;-65
2023/03/08 01:46:29;;;;;;;;;;;;;;;7.65;68.66;99089.38;5399924;32;35550;-65
2023/03/08 01:49:32;;;;;;;;;;;;;;;7.67;69.15;99090.16;5413921;32;35706;-73
2023/03/08 01:52:35;;;;;;;;;;;;;;;7.95;67.79;99090.50;5402399;32;35710;-65
2023/03/08 01:55:37;;;;;;;;;;;;;;;7.79;69.32;99098.25;5397999;32;35894;-73
2023/03/08 01:58:39;;;;;;;;;;;;;;;7.83;68.26;99093.72;5407927;32;34780;-73
2023/03/08 02:01:41;;;;;;;;;;;;;;;7.98;67.93;99103.41;5390814;32;34695;-73
2023/03/08 02:04:43;;;;;;;;;;;;;;;8.42;65.93;99103.03;5416016;32;44444;-66
2023/03/08 02:07:45;;;;;;;;;;;;;;;8.14;66.50;99099.16;5414157;32;34797;-73
2023/03/08 02:10:47;;;;;;;;;;;;;;;8.18;65.85;99105.09;5414922;32;35503;-66
2023/03/08 02:13:49;;;;;;;;;;;;;;;8.48;64.05;99107.09;5403254;32;36852;-65
2023/03/08 02:16:51;;;;;;;;;;;;;;;8.22;64.39;99117.09;5416567;32;36062;-74
2023/03/08 02:19:55;;;;;;;;;;;;;;;8.32;63.73;99117.47;5394631;32;36189;-71
2023/03/08 02:23:13;;;;;;;;;;;;;;;8.51;62.92;99113.06;5388154;32;36662;-74
2023/03/08 02:26:16;;;;;;;;;;;;;;;8.54;62.80;99118.13;5414979;32;45163;-73
2023/03/08 02:29:17;;;;;;;;;;;;;;;7.74;64.14;99105.47;5387742;32;35326;-65
2023/03/08 02:32:19;;;;;;;;;;;;;;;7.55;65.71;99117.72;5419227;32;35791;-65
2023/03/08 02:35:21;;;;;;;;;;;;;;;8.34;63.56;99115.63;5406151;32;35402;-65
2023/03/08 02:38:23;;;;;;;;;;;;;;;7.59;64.91;99121.88;5407498;32;35729;-73
2023/03/08 02:41:25;;;;;;;;;;;;;;;8.09;64.13;99126.47;5406966;32;34748;-73
2023/03/08 02:44:27;;;;;;;;;;;;;;;8.12;63.83;99126.31;5367812;32;35547;-65
2023/03/08 02:47:29;;;;;;;;;;;;;;;7.52;65.39;99138.78;5418173;32;35557;-73
2023/03/08 02:50:31;;;;;;;;;;;;;;;7.02;67.06;99144.56;5402751;32;36019;-73
2023/03/08 02:53:33;;;;;;;;;;;;;;;7.13;66.55;99152.72;5400982;32;34587;-66
2023/03/08 02:56:36;;;;;;;;;;;;;;;7.40;66.63;99153.25;5407720;32;34704;-68
2023/03/08 02:59:38;;;;;;;;;;;;;;;6.93;67.74;99164.06;5392145;32;35275;-65
2023/03/08 03:02:39;;;;;;;;;;;;;;;6.76;69.01;99169.16;5413571;32;34528;-73
2023/03/08 03:05:42;;;;;;;;;;;;;;;7.32;67.13;99169.28;5405088;32;34578;-67
2023/03/08 03:08:44;;;;;;;;;;;;;;;7.51;66.53;99171.91;5418516;32;46900;-66
2023/03/08 03:11:46;;;;;;;;;;;;;;;7.31;66.71;99172.81;5409033;32;36439;-66
2023/03/08 03:14:48;;;;;;;;;;;;;;;7.35;66.60;99175.31;5422962;32;36645;-73
2023/03/08 03:17:50;;;;;;;;;;;;;;;6.59;69.40;99185.56;5408653;32;35864;-65
2023/03/08 03:20:52;;;;;;;;;;;;;;;8.21;63.83;99178.22;5402703;32;35465;-74
2023/03/08 03:23:54;;;;;;;;;;;;;;;8.24;63.08;99185.06;5414471;32;35341;-73
2023/03/08 03:26:56;;;;;;;;;;;;;;;8.18;63.49;99194.06;5401200;32;35311;-73
2023/03/08 03:29:58;;;;;;;;;;;;;;;8.20;63.57;99200.06;5415698;32;35119;-74
2023/03/08 03:33:00;;;;;;;;;;;;;;;8.25;63.44;99202.47;5392025;32;35363;-66
2023/03/08 03:36:02;;;;;;;;;;;;;;;7.98;63.39;99210.69;5416811;32;35286;-73
2023/03/08 03:39:04;;;;;;;;;;;;;;;7.39;65.72;99216.91;5408700;32;36076;-66
2023/03/08 03:42:06;;;;;;;;;;;;;;;7.24;66.61;99215.84;5391550;32;35721;-74
2023/03/08 03:45:08;;;;;;;;;;;;;;;7.49;65.70;99212.12;5408876;32;35353;-73
2023/03/08 03:48:10;;;;;;;;;;;;;;;7.83;65.01;99209.66;5402002;32;36052;-72
2023/03/08 03:51:13;;;;;;;;;;;;;;;8.32;63.05;99203.88;5400642;32;34536;-65
2023/03/08 03:54:15;;;;;;;;;;;;;;;8.57;62.74;99196.53;5401623;32;45366;-74
2023/03/08 03:57:18;;;;;;;;;;;;;;;8.63;62.22;99191.00;5417982;32;35352;-74
2023/03/08 04:00:21;;;;;;;;;;;;;;;8.82;60.89;99184.81;5392715;32;36093;-74
2023/03/08 04:03:23;;;;;;;;;;;;;;;7.99;62.06;99167.94;5404738;32;36048;-66
2023/03/08 04:06:29;;;;;;;;;;;;;;;7.47;64.82;99167.75;5415646;32;36212;-73
2023/03/08 04:09:31;;;;;;;;;;;;;;;7.87;63.66;99161.53;5390642;32;35708;-71
2023/03/08 04:12:33;;;;;;;;;;;;;;;7.66;63.48;99159.88;5414261;32;34623;-74
2023/03/08 04:15:34;;;;;;;;;;;;;;;7.05;66.04;99173.97;5406350;32;35304;-70
2023/03/08 04:18:36;;;;;;;;;;;;;;;7.56;64.45;99176.94;5411926;32;36648;-65
2023/03/08 04:21:38;;;;;;;;;;;;;;;8.33;61.97;99180.22;5410478;32;34732;-72
2023/03/08 04:24:40;;;;;;;;;;;;;;;8.12;62.54;99194.38;5401715;32;34480;-74
2023/03/08 04:27:42;;;;;;;;;;;;;;;7.68;64.06;99212.16;5420641;32;35834;-73
2023/03/08 04:30:44;;;;;;;;;;;;;;;8.07;63.88;99219.91;5400488;32;44675;-65
2023/03/08 04:33:47;;;;;;;;;;;;;;;8.10;63.41;99224.97;5414769;32;35250;-65
2023/03/08 04:36:49;;;;;;;;;;;;;;;8.23;62.99;99225.25;5387317;32;36616;-64
2023/03/08 04:39:51;;;;;;;;;;;;;;;7.65;64.81;99227.97;5412040;32;35410;-73
2023/03/08 04:42:53;;;;;;;;;;;;;;;8.03;63.17;99232.28;5386029;32;36223;-64
2023/03/08 04:45:55;;;;;;;;;;;;;;;7.98;64.59;99239.47;5396558;32;34987;-73
2023/03/08 04:48:57;;;;;;;;;;;;;;;8.12;63.26;99237.09;5413040;32;36218;-66
2023/03/08 04:51:59;;;;;;;;;;;;;;;8.27;62.91;99235.50;5400473;32;35404;-66
2023/03/08 04:55:01;;;;;;;;;;;;;;;7.88;64.81;99236.47;5414111;32;35437;-67
2023/03/08 04:58:03;;;;;;;;;;;;;;;7.85;63.71;99240.97;5375263;32;849939;-72
2023/03/08 05:01:23;;;;;;;;;;;;;;;7.70;65.27;99232.06;5415461;32;36118;-73
2023/03/08 05:04:25;;;;;;;;;;;;;;;8.04;64.30;99228.72;5409589;32;36514;-64
2023/03/08 05:07:26;;;;;;;;;;;;;;;7.67;65.18;99239.22;5404402;32;34682;-73
2023/03/08 05:10:29;;;;;;;;;;;;;;;8.19;64.19;99231.56;5414995;32;35309;-73
2023/03/08 05:13:32;;;;;;;;;;;;;;;7.71;65.55;99230.31;5403783;32;35848;-65
2023/03/08 05:16:34;;;;;;;;;;;;;;;7.91;65.51;99229.38;5421689;32;35231;-73
2023/03/08 05:19:35;;;;;;;;;;;;;;;8.36;63.90;99236.84;5401043;32;35947;-71
2023/03/08 05:22:37;;;;;;;;;;;;;;;8.29;63.87;99231.03;5406197;32;34832;-72
2023/03/08 05:25:58;;;;;;;;;;;;;;;8.51;62.19;99216.94;5417895;32;35669;-73
2023/03/08 05:29:02;;;;;;;;;;;;;;;8.53;62.01;99230.81;5386897;32;36287;-71
2023/03/08 05:32:04;;;;;;;;;;;;;;;8.46;61.47;99234.66;5418722;32;35822;-74
2023/03/08 05:35:08;;;;;;;;;;;;;;;8.18;62.64;99237.69;5404450;32;34634;-72
2023/03/08 05:38:10;;;;;;;;;;;;;;;8.97;59.23;99246.94;5395054;32;35791;-64
2023/03/08 05:41:12;;;;;;;;;;;;;;;9.22;57.65;99257.88;5403364;32;34770;-66
2023/03/08 05:44:14;;;;;;;;;;;;;;;8.43;59.81;99269.66;5378102;32;45101;-65
2023/03/08 05:47:16;;;;;;;;;;;;;;;9.01;58.71;99273.81;5408975;32;37079;-67
2023/03/08 05:50:18;;;;;;;;;;;;;;;8.92;57.90;99280.38;5399353;32;34732;-66
2023/03/08 05:53:20;;;;;;;;;;;;;;;8.52;52.28;99279.72;5413532;32;35508;-66
2023/03/08 05:56:22;;;;;;;;;;;;;;;9.28;49.19;99282.09;5385366;32;33226;-65
2023/03/08 05:59:25;;;;;;;;;;;;;;;9.31;48.27;99287.16;5396401;32;35442;-73
2023/03/08 06:02:27;;;;;;;;;;;;;;;8.66;48.68;99271.19;5411778;32;35665;-73
2023/03/08 06:05:30;;;;;;;;;;;;;;;8.67;47.45;99293.84;5389485;32;34890;-74
2023/03/08 06:08:31;;;;;;;;;;;;;;;8.47;47.90;99299.19;5421139;32;35151;-74
2023/03/08 06:11:33;;;;;;;;;;;;;;;9.48;45.47;99295.00;5400778;32;35433;-74
2023/03/08 06:14:35;;;;;;;;;;;;;;;9.47;44.27;99303.81;5415778;32;35619;-66
2023/03/08 06:17:38;;;;;;;;;;;;;;;9.65;43.38;99301.97;5406918;32;34709;-73
2023/03/08 06:20:39;;;;;;;;;;;;;;;8.26;46.87;99309.72;5411197;32;35969;-76
2023/03/08 06:23:41;;;;;;;;;;;;;;;8.68;46.38;99309.47;5408075;32;35678;-76
2023/03/08 06:26:43;;;;;;;;;;;;;;;8.52;46.27;99315.53;5398345;32;45531;-78
2023/03/08 06:29:47;;;;;;;;;;;;;;;8.54;46.88;99326.78;5402418;32;34780;-78
2023/03/08 06:32:49;;;;;;;;;;;;;;;8.74;46.38;99323.19;5402117;32;35200;-68
2023/03/08 06:35:54;;;;;;;;;;;;;;;9.70;44.56;99336.72;5413713;32;34782;-78
2023/03/08 06:38:58;;;;;;;;;;;;;;;10.18;42.38;99330.66;5401008;32;36453;-74
2023/03/08 06:42:01;;;;;;;;;;;;;;;9.69;43.54;99333.22;5391959;32;34578;-72
2023/03/08 06:45:03;;;;;;;;;;;;;;;10.49;43.27;99332.44;5399945;32;36663;-72
2023/03/08 06:48:05;;;;;;;;;;;;;;;10.52;42.13;99336.69;5401286;32;35101;-66
2023/03/08 06:51:07;;;;;;;;;;;;;;;10.60;41.75;99345.00;5411776;32;34616;-76
2023/03/08 06:54:09;;;;;;;;;;;;;;;9.16;44.31;99356.94;5398956;32;35350;-65
2023/03/08 06:57:11;;;;;;;;;;;;;;;10.05;42.73;99345.37;5412417;32;35122;-77
2023/03/08 07:00:14;;;;;;;;;;;;;;;10.44;41.88;99349.41;5403303;32;43168;-65
2023/03/08 07:03:16;;;;;;;;;;;;;;;11.44;39.56;99332.25;5410549;32;34908;-80
2023/03/08 07:06:18;;;;;;;;;;;;;;;10.03;42.13;99357.69;5409890;32;36103;-64
2023/03/08 07:09:20;;;;;;;;;;;;;;;9.49;42.16;99355.25;5404222;32;36003;-64
2023/03/08 07:12:22;;;;;;;;;;;;;;;10.95;39.60;99361.44;5414126;32;36048;-73
2023/03/08 07:15:24;;;;;;;;;;;;;;;10.68;39.63;99368.22;5399711;32;34702;-73
2023/03/08 07:18:26;;;;;;;;;;;;;;;9.67;42.31;99381.47;5401257;32;36487;-79
2023/03/08 07:21:28;;;;;;;;;;;;;;;9.92;41.14;99379.28;5395286;32;36005;-73
2023/03/08 07:24:30;;;;;;;;;;;;;;;9.95;40.73;99389.59;5402464;32;35090;-68
2023/03/08 07:27:32;;;;;;;;;;;;;;;10.57;39.71;99390.69;5411861;32;35314;-71
2023/03/08 07:30:33;;;;;;;;;;;;;;;10.42;41.01;99398.53;5389633;32;35175;-66
2023/03/08 07:33:35;;;;;;;;;;;;;;;10.17;41.89;99396.34;5415143;32;35953;-66
2023/03/08 07:36:38;;;;;;;;;;;;;;;10.65;40.69;99397.31;5404334;32;34589;-70
2023/03/08 07:39:41;;;;;;;;;;;;;;;9.82;42.13;99403.44;5392514;32;35980;-70
2023/03/08 07:42:43;;;;;;;;;;;;;;;10.73;40.39;99402.97;5388065;32;45794;-73
2023/03/08 07:45:45;;;;;;;;;;;;;;;11.71;38.37;99399.97;5406739;32;36395;-72
2023/03/08 07:48:47;;;;;;;;;;;;;;;10.70;40.12;99409.25;5418495;32;36341;-69
2023/03/08 07:51:50;;;;;;;;;;;;;;;10.04;41.84;99412.75;5408612;32;34881;-70
2023/03/08 07:54:52;;;;;;;;;;;;;;;10.32;41.61;99405.25;5421551;32;36061;-70
2023/03/08 07:57:55;;;;;;;;;;;;;;;11.49;39.21;99419.66;5401912;32;37220;-72
2023/03/08 08:00:56;;;;;;;;;;;;;;;11.01;40.08;99412.78;5400292;32;34692;-70
2023/03/08 08:03:59;;;;;;;;;;;;;;;11.59;38.57;99423.47;5412597;32;36079;-72
2023/03/08 08:07:01;;;;;;;;;;;;;;;11.97;36.09;99430.91;5404197;32;34831;-79
2023/03/08 08:10:07;;;;;;;;;;;;;;;10.99;37.60;99435.69;5401841;32;34392;-69
2023/03/08 08:13:08;;;;;;;;;;;;;;;10.49;38.50;99441.94;5391537;32;35460;-72
2023/03/08 08:16:10;;;;;;;;;;;;;;;10.88;37.29;99438.91;5420053;32;35865;-71
2023/03/08 08:19:13;;;;;;;;;;;;;;;10.92;37.54;99443.06;5406967;32;44626;-71
2023/03/08 08:22:15;;;;;;;;;;;;;;;10.65;37.85;99436.72;5403406;32;36186;-71
2023/03/08 08:25:19;;;;;;;;;;;;;;;10.74;37.78;99436.19;5391821;32;36873;-70
2023/03/08 08:28:21;;;;;;;;;;;;;;;11.07;36.96;99429.06;5410165;32;36125;-72
2023/03/08 08:31:24;;;;;;;;;;;;;;;10.10;38.68;99435.19;5418636;32;35179;-76
2023/03/08 08:34:26;;;;;;;;;;;;;;;11.04;37.02;99434.50;5385620;32;34752;-81
2023/03/08 08:37:30;;;;;;;;;;;;;;;10.45;37.82;99435.16;5402638;32;36060;-78
2023/03/08 08:40:32;;;;;;;;;;;;;;;11.17;36.88;99432.03;5395644;32;36644;-85
2023/03/08 08:43:34;;;;;;;;;;;;;;;11.30;36.63;99435.66;5396709;32;34635;-79
2023/03/08 08:46:37;;;;;;;;;;;;;;;11.27;36.95;99430.59;5403514;32;36485;-82
2023/03/08 08:49:39;;;;;;;;;;;;;;;11.20;36.14;99434.47;5388193;32;35493;-80
2023/03/08 08:52:40;;;;;;;;;;;;;;;10.95;36.56;99436.78;5417897;32;34267;-84
2023/03/08 08:55:43;;;;;;;;;;;;;;;11.92;35.02;99430.34;5391361;32;43808;-71
2023/03/08 08:58:47;;;;;;;;;;;;;;;12.13;34.65;99425.56;5405815;32;38370;-76
2023/03/08 09:01:49;;;;;;;;;;;;;;;12.47;33.99;99419.91;5394679;32;34729;-86
2023/03/08 09:04:50;;;;;;;;;;;;;;;11.95;35.14;99424.03;5410958;32;35047;-81
2023/03/08 09:07:53;;;;;;;;;;;;;;;12.24;34.32;99423.13;5398428;32;36006;-78
2023/03/08 09:11:00;;;;;;;;;;;;;;;12.61;33.88;99410.28;5406284;32;35506;-78
2023/03/08 09:14:02;;;;;;;;;;;;;;;12.17;34.27;99416.53;5418879;32;36052;-70
2023/03/08 09:17:05;;;;;;;;;;;;;;;12.93;33.32;99410.88;5403264;32;36731;-70
2023/03/08 09:20:10;;;;;;;;;;;;;;;12.95;33.11;99398.47;5402005;32;34893;-75
2023/03/08 09:23:12;;;;;;;;;;;;;;;11.64;34.29;99407.37;5402339;32;36009;-72
2023/03/08 09:26:14;;;;;;;;;;;;;;;12.23;33.81;99404.75;5411259;32;44825;-67
2023/03/08 09:29:16;;;;;;;;;;;;;;;13.00;32.76;99399.84;5410337;32;35071;-70
2023/03/08 09:32:18;;;;;;;;;;;;;;;13.22;32.18;99391.41;5386553;32;34691;-66
2023/03/08 09:35:20;;;;;;;;;;;;;;;14.04;30.91;99395.56;5405117;32;35113;-77
2023/03/08 09:38:22;;;;;;;;;;;;;;;13.82;30.92;99385.63;5398418;32;34902;-67
2023/03/08 09:41:30;;;;;;;;;;;;;;;14.40;29.84;99386.00;5394991;32;36022;-77
2023/03/08 09:44:33;;;;;;;;;;;;;;;14.50;29.90;99388.91;5367071;32;34741;-71
2023/03/08 09:47:43;;;;;;;;;;;;;;;14.93;29.09;99386.63;5406215;32;35221;-70
2023/03/08 09:50:49;;;;;;;;;;;;;;;12.60;32.78;99398.06;5408286;32;47099;-71
2023/03/08 09:53:53;;;;;;;;;;;;;;;14.39;29.70;99394.91;5398830;32;35873;-75
2023/03/08 09:56:55;;;;;;;;;;;;;;;14.38;29.79;99393.22;5402323;32;36182;-86
2023/03/08 09:59:58;;;;;;;;;;;;;;;14.85;29.13;99400.41;5401441;32;34871;-77
2023/03/08 10:03:19;;;;;;;;;;;;;;;15.14;28.73;99397.47;5400944;32;35430;-71
2023/03/08 10:06:30;;;;;;;;;;;;;;;14.12;30.30;99384.47;5405290;32;44724;-73
2023/03/08 10:09:36;;;;;;;;;;;;;;;17.49;25.35;99368.34;5407614;32;34611;-71
2023/03/08 10:12:38;;;;;;;;;;;;;;;17.77;24.82;99372.19;5416578;32;34609;-83
2023/03/08 10:15:41;;;;;;;;;;;;;;;19.20;26.41;99364.03;5403707;32;34727;-66
2023/03/08 10:18:46;;;;;;;;;;;;;;;16.88;30.13;99375.22;5396121;32;43764;-67
2023/03/08 10:21:48;;;;;;;;;;;;;;;16.61;30.65;99372.94;5405168;32;36065;-73
2023/03/08 10:24:59;;;;;;;;;;;;;;;15.58;32.46;99372.09;5407117;32;34598;-73
2023/03/08 10:28:02;;;;;;;;;;;;;;;15.74;32.28;99377.13;5418175;32;34967;-74
2023/03/08 10:31:14;;;;;;;;;;;;;;;16.48;30.72;99375.72;5409028;32;34499;-73
2023/03/08 10:34:18;;;;;;;;;;;;;;;15.38;32.20;99379.75;5396739;32;44510;-76
2023/03/08 10:37:21;;;;;;;;;;;;;;;13.83;34.75;99379.38;5407548;32;35974;-71
2023/03/08 10:40:23;;;;;;;;;;;;;;;14.97;32.57;99377.53;5416236;32;34789;-70
2023/03/08 10:43:27;;;;;;;;;;;;;;;15.79;31.34;99381.13;5367930;32;37122;-82
2023/03/08 10:46:30;;;;;;;;;;;;;;;14.96;32.77;99383.78;5371970;32;34617;-89
2023/03/08 10:49:32;;;;;;;;;;;;;;;16.40;30.43;99372.84;5419799;32;34702;-82
2023/03/08 10:52:35;;;;;;;;;;;;;;;14.83;32.75;99383.81;5401899;32;34507;-84
2023/03/08 10:55:57;;;;;;;;;;;;;;;15.77;31.64;99379.53;5418756;32;35881;-86
2023/03/08 10:58:59;;;;;;;;;;;;;;;15.28;31.80;99370.81;5399665;32;35014;-80
2023/03/08 11:02:14;;;;;;;;;;;;;;;14.93;32.15;99365.47;5396254;32;35521;-80
2023/03/08 11:05:17;;;;;;;;;;;;;;;14.62;32.51;99353.66;5427005;32;44427;-73
2023/03/08 11:08:21;;;;;;;;;;;;;;;14.26;32.69;99354.44;5392703;32;36567;-72
2023/03/08 11:11:23;;;;;;;;;;;;;;;13.27;34.31;99362.09;5414848;32;34863;-72
2023/03/08 11:14:25;;;;;;;;;;;;;;;12.43;36.42;99359.59;5403731;32;36368;-73
2023/03/08 11:17:32;;;;;;;;;;;;;;;13.48;33.78;99346.63;5400495;32;34766;-71
2023/03/08 11:20:44;;;;;;;;;;;;;;;13.79;33.28;99337.47;5394808;32;33984;-73
2023/03/08 11:23:55;;;;;;;;;;;;;;;14.60;31.72;99323.81;5355868;32;46141;-73
2023/03/08 11:27:04;;;;;;;;;;;;;;;14.93;31.07;99333.72;5409046;32;36597;-70
2023/03/08 11:30:18;;;;;;;;;;;;;;;15.42;30.08;99327.41;5397177;32;35581;-71
2023/03/08 11:33:26;;;;;;;;;;;;;;;15.38;29.80;99332.09;5410711;32;45264;-71
2023/03/08 11:36:40;;;;;;;;;;;;;;;15.57;29.34;99331.53;5398955;32;36849;-76
2023/03/08 11:39:47;;;;;;;;;;;;;;;15.38;29.36;99332.09;5409306;32;35064;-84
2023/03/08 11:42:52;;;;;;;;;;;;;;;14.07;31.88;99331.94;5401728;32;44790;-79
2023/03/08 11:46:00;;;;;;;;;;;;;;;13.67;32.59;99333.84;5396249;32;34684;-72
2023/03/08 11:49:21;;;;;;;;;;;;;;;13.17;32.91;99330.16;5422118;32;35978;-77
2023/03/08 11:52:29;;;;;;;;;;;;;;;14.48;30.93;99320.25;5416282;32;34811;-86
2023/03/08 11:55:51;;;;;;;;;;;;;;;13.63;32.24;99320.97;5403255;32;35483;-72
2023/03/08 11:58:53;;;;;;;;;;;;;;;13.41;32.86;99319.78;5420348;32;34953;-75
2023/03/08 12:01:57;;;;;;;;;;;;;;;14.03;31.50;99314.59;5400815;32;35194;-78
2023/03/08 12:05:01;;;;;;;;;;;;;;;12.68;33.13;99312.25;5411431;32;34818;-89
2023/03/08 12:08:11;;;;;;;;;;;;;;;13.44;32.16;99311.66;5413220;32;33652;-71
2023/03/08 12:11:20;;;;;;;;;;;;;;;13.65;31.94;99305.84;5386445;32;42810;-74
2023/03/08 12:14:24;;;;;;;;;;;;;;;13.66;31.50;99303.12;5405334;32;35199;-71
2023/03/08 12:17:29;;;;;;;;;;;;;;;13.80;31.17;99291.59;5388696;32;34808;-76
2023/03/08 12:20:33;;;;;;;;;;;;;;;13.80;30.96;99286.31;5397635;32;36174;-74
2023/03/08 12:23:39;;;;;;;;;;;;;;;13.30;32.03;99293.28;5387462;32;37233;-73
2023/03/08 12:26:53;;;;;;;;;;;;;;;13.97;30.98;99290.41;5395218;32;33742;-72
2023/03/08 12:29:55;;;;;;;;;;;;;;;13.63;31.43;99294.56;5392467;32;35383;-73
2023/03/08 12:32:58;;;;;;;;;;;;;;;13.67;31.59;99293.41;5397385;32;34805;-73
2023/03/08 12:36:05;;;;;;;;;;;;;;;13.49;32.59;99292.87;5410869;32;34716;-68
2023/03/08 12:39:08;;;;;;;;;;;;;;;13.74;32.10;99277.03;5397139;32;34747;-68
2023/03/08 12:42:10;;;;;;;;;;;;;;;13.59;32.71;99266.66;5379569;32;36133;-69
2023/03/08 12:45:18;;;;;;;;;;;;;;;13.34;33.52;99271.00;5400205;32;33974;-67
2023/03/08 12:48:25;;;;;;;;;;;;;;;13.55;32.95;99266.06;5406075;32;46523;-67
2023/03/08 12:51:31;;;;;;;;;;;;;;;13.95;32.73;99235.06;5407250;32;34851;-75
2023/03/08 12:54:33;;;;;;;;;;;;;;;13.84;33.00;99234.97;5389237;32;34025;-71
2023/03/08 12:57:41;;;;;;;;;;;;;;;13.49;33.53;99240.06;5406744;32;32957;-69
2023/03/08 13:00:44;;;;;;;;;;;;;;;14.00;32.22;99230.28;5407474;32;45136;-77
2023/03/08 13:03:46;;;;;;;;;;;;;;;14.39;31.35;99222.22;5379874;32;36618;-80
2023/03/08 13:06:53;;;;;;;;;;;;;;;14.54;30.60;99213.19;5415006;32;36778;-69
2023/03/08 13:10:16;;;;;;;;;;;;;;;15.48;29.47;99193.72;5390487;32;36004;-73
2023/03/08 13:13:20;;;;;;;;;;;;;;;16.17;28.43;99187.28;5414138;32;44921;-70
2023/03/08 13:16:39;;;;;;;;;;;;;;;15.47;28.83;99173.50;5387727;32;35522;-70
2023/03/08 13:19:41;;;;;;;;;;;;;;;16.23;27.50;99164.75;5406269;32;36165;-79
2023/03/08 13:22:52;;;;;;;;;;;;;;;16.73;26.79;99146.47;5416241;32;45728;-69
2023/03/08 13:26:00;;;;;;;;;;;;;;;18.13;25.31;99133.38;5389160;32;34624;-72
2023/03/08 13:29:08;;;;;;;;;;;;;;;18.68;23.46;99128.38;5417480;32;34638;-72
2023/03/08 13:32:17;;;;;;;;;;;;;;;16.85;25.80;99142.78;5390920;32;34736;-71
2023/03/08 13:35:20;;;;;;;;;;;;;;;17.14;25.39;99128.84;5395336;32;46902;-87
2023/03/08 13:38:22;;;;;;;;;;;;;;;17.33;25.12;99113.84;5386853;32;35526;-79
2023/03/08 13:41:50;;;;;;;;;;;;;;;15.50;27.77;99113.19;5380656;32;34576;-73
2023/03/08 13:44:53;;;;;;;;;;;;;;;15.37;28.27;99112.47;5396328;32;43789;-75
2023/03/08 13:47:56;;;;;;;;;;;;;;;15.76;28.32;99089.09;5391997;32;34525;-73
2023/03/08 13:50:58;;;;;;;;;;;;;;;15.08;29.30;99086.50;5410284;32;34707;-70
2023/03/08 13:54:00;;;;;;;;;;;;;;;15.67;28.77;99094.19;5408640;32;34743;-70
2023/03/08 13:57:04;;;;;;;;;;;;;;;15.42;29.22;99081.19;5385558;32;34772;-66
2023/03/08 14:00:35;;;;;;;;;;;;;;;15.47;29.70;99086.97;5418783;32;34881;-74
2023/03/08 14:03:37;;;;;;;;;;;;;;;14.25;32.15;99088.47;5394469;32;34699;-74
2023/03/08 14:06:42;;;;;;;;;;;;;;;15.15;31.20;99079.75;5405285;32;36020;-73
2023/03/08 14:09:44;;;;;;;;;;;;;;;14.82;32.23;99087.69;5387940;32;46006;-71
2023/03/08 14:12:46;;;;;;;;;;;;;;;15.02;32.28;99088.78;5403504;32;37337;-71
2023/03/08 14:15:49;;;;;;;;;;;;;;;14.98;32.55;99089.97;5400497;32;37276;-70
2023/03/08 14:18:51;;;;;;;;;;;;;;;14.26;34.27;99100.72;5389276;32;34796;-72
2023/03/08 14:21:55;;;;;;;;;;;;;;;14.82;33.54;99085.03;5417762;32;36325;-81
2023/03/08 14:25:03;;;;;;;;;;;;;;;14.36;34.49;99093.78;5410712;32;36552;-83
2023/03/08 14:28:20;;;;;;;;;;;;;;;14.13;35.35;99084.94;5412089;32;34652;-83
2023/03/08 14:31:23;;;;;;;;;;;;;;;15.13;33.62;99087.00;5392075;32;36828;-75
2023/03/08 14:34:32;;;;;;;;;;;;;;;14.27;35.29;99087.37;5406079;32;34576;-78
2023/03/08 14:37:34;;;;;;;;;;;;;;;14.69;35.19;99079.84;5421430;32;36371;-78
2023/03/08 14:40:36;;;;;;;;;;;;;;;14.73;35.33;99089.22;5404820;32;35428;-82
2023/03/08 14:43:38;;;;;;;;;;;;;;;14.26;36.42;99091.00;5378693;32;34640;-72
2023/03/08 14:46:40;;;;;;;;;;;;;;;13.53;38.38;99101.66;5400036;32;36095;-73
2023/03/08 14:49:42;;;;;;;;;;;;;;;13.49;38.62;99095.75;5404521;32;36736;-75
2023/03/08 14:52:46;;;;;;;;;;;;;;;14.02;37.99;99098.09;5406009;32;34665;-74
2023/03/08 14:55:48;;;;;;;;;;;;;;;13.85;38.26;99107.25;5394658;32;34583;-75
2023/03/08 14:58:50;;;;;;;;;;;;;;;13.32;39.67;99105.81;5401989;32;35326;-76
2023/03/08 15:01:52;;;;;;;;;;;;;;;13.23;40.32;99091.47;5403023;32;34887;-85
2023/03/08 15:04:54;;;;;;;;;;;;;;;13.51;40.20;99083.28;5403414;32;34668;-87
2023/03/08 15:07:59;;;;;;;;;;;;;;;13.18;41.19;99075.09;5412301;32;36560;-89
2023/03/08 15:11:01;;;;;;;;;;;;;;;13.61;40.67;99066.78;5408683;32;35217;-83
2023/03/08 15:14:03;;;;;;;;;;;;;;;13.78;40.29;99066.38;5404119;32;36973;-86
2023/03/08 15:17:05;;;;;;;;;;;;;;;13.94;40.14;99060.84;5405040;32;34722;-84
2023/03/08 15:20:08;;;;;;;;;;;;;;;13.91;40.58;99046.06;5416981;32;34628;-79
2023/03/08 15:23:13;;;;;;;;;;;;;;;13.37;41.50;99050.91;5402269;32;34775;-77
2023/03/08 15:26:25;;;;;;;;;;;;;;;13.74;41.08;99049.09;5414351;32;48303;-78
2023/03/08 15:29:28;;;;;;;;;;;;;;;13.71;41.16;99039.59;5391962;32;34696;-72
2023/03/08 15:32:30;;;;;;;;;;;;;;;13.55;42.26;99041.69;5384665;32;35094;-81
2023/03/08 15:35:32;;;;;;;;;;;;;;;13.83;42.17;99043.97;5415117;32;35412;-71
2023/03/08 15:38:36;;;;;;;;;;;;;;;14.07;42.22;99030.75;5399211;32;35233;-72
2023/03/08 15:41:38;;;;;;;;;;;;;;;14.03;42.73;99029.28;5411964;32;35646;-80
2023/03/08 15:44:40;;;;;;;;;;;;;;;13.93;42.96;99028.31;5370560;32;35748;-71
2023/03/08 15:47:42;;;;;;;;;;;;;;;13.62;44.01;99019.16;5415425;32;36648;-79
2023/03/08 15:50:45;;;;;;;;;;;;;;;13.43;45.12;99014.38;5413274;32;35423;-79
2023/03/08 15:53:47;;;;;;;;;;;;;;;12.71;47.37;99006.28;5399338;32;35540;-73
2023/03/08 15:56:49;;;;;;;;;;;;;;;13.50;45.88;98991.00;5421077;32;36127;-80
2023/03/08 15:59:51;;;;;;;;;;;;;;;14.03;44.72;98981.72;5402576;32;34863;-70
2023/03/08 16:02:53;;;;;;;;;;;;;;;14.13;44.85;98976.59;5417664;32;35253;-72